sensor_id;sensor_type;location;lat;lon;timestamp;P1;durP1;ratioP1;P2;durP2;ratioP2
2177;SDS011;1095;50.992;6.798;2023-12-20T00:02:27;23.10;;;14.23;;
2177;SDS011;1095;50.992;6.798;2023-12-20T00:05:04;21.60;;;13.77;;
2177;SDS011;1095;50.992;6.798;2023-12-20T00:18:48;17.63;;;11.38;;
2177;SDS011;1095;50.992;6.798;2023-12-20T00:21:27;19.00;;;11.90;;
2177;SDS011;1095;50.992;6.798;2023-12-20T00:24:45;16.95;;;10.85;;
2177;SDS011;1095;50.992;6.798;2023-12-20T00:27:38;12.95;;;8.52;;
2177;SDS011;1095;50.992;6.798;2023-12-20T00:33:06;12.35;;;8.68;;
2177;SDS011;1095;50.992;6.798;2023-12-20T00:35:48;14.00;;;9.57;;
2177;SDS011;1095;50.992;6.798;2023-12-20T00:41:34;13.45;;;8.93;;
2177;SDS011;1095;50.992;6.798;2023-12-20T00:51:41;14.55;;;9.05;;
2177;SDS011;1095;50.992;6.798;2023-12-20T00:57:49;15.55;;;9.07;;
2177;SDS011;1095;50.992;6.798;2023-12-20T01:03:49;17.65;;;10.38;;
2177;SDS011;1095;50.992;6.798;2023-12-20T01:06:51;17.13;;;10.80;;
2177;SDS011;1095;50.992;6.798;2023-12-20T01:09:24;20.40;;;11.73;;
2177;SDS011;1095;50.992;6.798;2023-12-20T01:12:16;21.33;;;11.35;;
2177;SDS011;1095;50.992;6.798;2023-12-20T01:18:59;24.52;;;12.13;;
2177;SDS011;1095;50.992;6.798;2023-12-20T01:40:22;31.23;;;17.95;;
2177;SDS011;1095;50.992;6.798;2023-12-20T01:43:20;32.88;;;17.65;;
2177;SDS011;1095;50.992;6.798;2023-12-20T01:47:12;28.63;;;17.85;;
2177;SDS011;1095;50.992;6.798;2023-12-20T01:49:49;32.15;;;18.60;;
2177;SDS011;1095;50.992;6.798;2023-12-20T01:53:04;31.25;;;17.05;;
2177;SDS011;1095;50.992;6.798;2023-12-20T01:55:55;30.48;;;14.75;;
2177;SDS011;1095;50.992;6.798;2023-12-20T01:58:24;26.40;;;13.68;;
2177;SDS011;1095;50.992;6.798;2023-12-20T02:00:52;25.38;;;12.63;;
2177;SDS011;1095;50.992;6.798;2023-12-20T02:03:20;26.63;;;12.52;;
2177;SDS011;1095;50.992;6.798;2023-12-20T02:05:47;33.45;;;12.85;;
2177;SDS011;1095;50.992;6.798;2023-12-20T02:08:14;31.35;;;12.43;;
2177;SDS011;1095;50.992;6.798;2023-12-20T02:10:40;24.42;;;11.82;;
2177;SDS011;1095;50.992;6.798;2023-12-20T02:13:09;21.70;;;10.68;;
2177;SDS011;1095;50.992;6.798;2023-12-20T02:15:35;16.50;;;8.35;;
2177;SDS011;1095;50.992;6.798;2023-12-20T02:18:03;24.95;;;8.07;;
2177;SDS011;1095;50.992;6.798;2023-12-20T02:20:30;21.65;;;7.85;;
2177;SDS011;1095;50.992;6.798;2023-12-20T02:22:58;23.33;;;7.72;;
2177;SDS011;1095;50.992;6.798;2023-12-20T02:25:25;21.55;;;7.50;;
2177;SDS011;1095;50.992;6.798;2023-12-20T02:27:51;18.50;;;7.00;;
2177;SDS011;1095;50.992;6.798;2023-12-20T02:30:18;19.92;;;6.93;;
2177;SDS011;1095;50.992;6.798;2023-12-20T02:32:45;19.33;;;6.78;;
2177;SDS011;1095;50.992;6.798;2023-12-20T02:35:11;24.92;;;6.43;;
2177;SDS011;1095;50.992;6.798;2023-12-20T02:37:38;19.73;;;6.07;;
2177;SDS011;1095;50.992;6.798;2023-12-20T02:40:06;20.05;;;5.63;;
2177;SDS011;1095;50.992;6.798;2023-12-20T02:42:33;19.08;;;5.60;;
2177;SDS011;1095;50.992;6.798;2023-12-20T02:45:00;15.25;;;5.22;;
2177;SDS011;1095;50.992;6.798;2023-12-20T02:47:27;19.55;;;5.85;;
2177;SDS011;1095;50.992;6.798;2023-12-20T02:49:54;18.45;;;5.47;;
2177;SDS011;1095;50.992;6.798;2023-12-20T02:52:22;28.98;;;8.00;;
2177;SDS011;1095;50.992;6.798;2023-12-20T02:54:49;22.35;;;5.97;;
2177;SDS011;1095;50.992;6.798;2023-12-20T02:57:17;18.00;;;6.05;;
2177;SDS011;1095;50.992;6.798;2023-12-20T02:59:44;24.73;;;7.55;;
2177;SDS011;1095;50.992;6.798;2023-12-20T03:02:11;22.65;;;8.38;;
2177;SDS011;1095;50.992;6.798;2023-12-20T03:04:37;21.45;;;6.80;;
2177;SDS011;1095;50.992;6.798;2023-12-20T03:07:04;16.73;;;5.97;;
2177;SDS011;1095;50.992;6.798;2023-12-20T03:09:31;30.25;;;7.20;;
2177;SDS011;1095;50.992;6.798;2023-12-20T03:11:58;18.42;;;6.82;;
2177;SDS011;1095;50.992;6.798;2023-12-20T03:14:26;20.38;;;6.50;;
2177;SDS011;1095;50.992;6.798;2023-12-20T03:16:53;23.88;;;6.93;;
2177;SDS011;1095;50.992;6.798;2023-12-20T03:19:23;27.17;;;6.72;;
2177;SDS011;1095;50.992;6.798;2023-12-20T03:21:50;28.92;;;7.82;;
2177;SDS011;1095;50.992;6.798;2023-12-20T03:24:18;20.42;;;6.43;;
2177;SDS011;1095;50.992;6.798;2023-12-20T03:26:45;23.60;;;7.07;;
2177;SDS011;1095;50.992;6.798;2023-12-20T03:29:12;25.70;;;7.55;;
2177;SDS011;1095;50.992;6.798;2023-12-20T03:31:40;20.45;;;6.47;;
2177;SDS011;1095;50.992;6.798;2023-12-20T03:34:07;20.75;;;6.72;;
2177;SDS011;1095;50.992;6.798;2023-12-20T03:36:35;20.02;;;7.20;;
2177;SDS011;1095;50.992;6.798;2023-12-20T03:39:02;23.98;;;7.22;;
2177;SDS011;1095;50.992;6.798;2023-12-20T03:41:30;19.80;;;6.95;;
2177;SDS011;1095;50.992;6.798;2023-12-20T03:43:57;18.10;;;7.32;;
2177;SDS011;1095;50.992;6.798;2023-12-20T03:46:24;27.90;;;7.55;;
2177;SDS011;1095;50.992;6.798;2023-12-20T03:48:54;25.58;;;8.70;;
2177;SDS011;1095;50.992;6.798;2023-12-20T03:51:21;23.33;;;6.88;;
2177;SDS011;1095;50.992;6.798;2023-12-20T03:53:48;17.88;;;6.93;;
2177;SDS011;1095;50.992;6.798;2023-12-20T03:56:14;22.65;;;6.63;;
2177;SDS011;1095;50.992;6.798;2023-12-20T03:58:43;25.55;;;7.90;;
2177;SDS011;1095;50.992;6.798;2023-12-20T04:01:10;22.65;;;7.32;;
2177;SDS011;1095;50.992;6.798;2023-12-20T04:03:37;17.02;;;6.97;;
2177;SDS011;1095;50.992;6.798;2023-12-20T04:06:06;22.75;;;6.65;;
2177;SDS011;1095;50.992;6.798;2023-12-20T04:08:33;19.50;;;7.00;;
2177;SDS011;1095;50.992;6.798;2023-12-20T04:11:00;16.80;;;6.85;;
2177;SDS011;1095;50.992;6.798;2023-12-20T04:13:26;16.67;;;6.82;;
2177;SDS011;1095;50.992;6.798;2023-12-20T04:15:53;17.92;;;6.35;;
2177;SDS011;1095;50.992;6.798;2023-12-20T04:18:20;20.70;;;6.80;;
2177;SDS011;1095;50.992;6.798;2023-12-20T04:20:49;19.52;;;6.30;;
2177;SDS011;1095;50.992;6.798;2023-12-20T04:23:18;26.50;;;7.10;;
2177;SDS011;1095;50.992;6.798;2023-12-20T04:25:44;19.88;;;7.35;;
2177;SDS011;1095;50.992;6.798;2023-12-20T04:28:11;25.27;;;7.85;;
2177;SDS011;1095;50.992;6.798;2023-12-20T04:30:38;18.25;;;6.70;;
2177;SDS011;1095;50.992;6.798;2023-12-20T04:33:05;18.42;;;6.97;;
2177;SDS011;1095;50.992;6.798;2023-12-20T04:35:31;17.23;;;6.80;;
2177;SDS011;1095;50.992;6.798;2023-12-20T04:37:58;21.10;;;7.38;;
2177;SDS011;1095;50.992;6.798;2023-12-20T04:40:26;25.20;;;8.05;;
2177;SDS011;1095;50.992;6.798;2023-12-20T04:42:52;18.27;;;7.43;;
2177;SDS011;1095;50.992;6.798;2023-12-20T04:45:19;18.48;;;7.30;;
2177;SDS011;1095;50.992;6.798;2023-12-20T04:47:45;17.45;;;7.20;;
2177;SDS011;1095;50.992;6.798;2023-12-20T04:50:12;17.92;;;7.95;;
2177;SDS011;1095;50.992;6.798;2023-12-20T04:52:39;21.55;;;7.88;;
2177;SDS011;1095;50.992;6.798;2023-12-20T04:55:06;15.25;;;7.00;;
2177;SDS011;1095;50.992;6.798;2023-12-20T04:57:35;13.77;;;7.13;;
2177;SDS011;1095;50.992;6.798;2023-12-20T05:00:01;21.00;;;6.63;;
2177;SDS011;1095;50.992;6.798;2023-12-20T05:02:29;21.08;;;6.93;;
2177;SDS011;1095;50.992;6.798;2023-12-20T05:04:56;18.67;;;6.55;;
2177;SDS011;1095;50.992;6.798;2023-12-20T05:07:23;18.85;;;6.80;;
2177;SDS011;1095;50.992;6.798;2023-12-20T05:09:49;20.67;;;7.05;;
2177;SDS011;1095;50.992;6.798;2023-12-20T05:12:16;18.42;;;7.03;;
2177;SDS011;1095;50.992;6.798;2023-12-20T05:14:44;19.95;;;7.78;;
2177;SDS011;1095;50.992;6.798;2023-12-20T05:17:10;23.05;;;7.78;;
2177;SDS011;1095;50.992;6.798;2023-12-20T05:19:37;20.65;;;6.97;;
2177;SDS011;1095;50.992;6.798;2023-12-20T05:22:04;17.25;;;6.75;;
2177;SDS011;1095;50.992;6.798;2023-12-20T05:24:30;24.45;;;7.85;;
2177;SDS011;1095;50.992;6.798;2023-12-20T05:26:57;17.98;;;7.38;;
2177;SDS011;1095;50.992;6.798;2023-12-20T05:29:23;28.50;;;8.05;;
2177;SDS011;1095;50.992;6.798;2023-12-20T05:31:52;22.30;;;8.07;;
2177;SDS011;1095;50.992;6.798;2023-12-20T05:34:23;22.35;;;6.97;;
2177;SDS011;1095;50.992;6.798;2023-12-20T05:36:49;29.13;;;7.47;;
2177;SDS011;1095;50.992;6.798;2023-12-20T05:39:23;20.38;;;7.32;;
2177;SDS011;1095;50.992;6.798;2023-12-20T05:41:56;23.77;;;7.50;;
2177;SDS011;1095;50.992;6.798;2023-12-20T05:44:23;20.17;;;6.88;;
2177;SDS011;1095;50.992;6.798;2023-12-20T05:46:53;17.02;;;6.20;;
2177;SDS011;1095;50.992;6.798;2023-12-20T05:49:22;19.88;;;6.07;;
2177;SDS011;1095;50.992;6.798;2023-12-20T05:51:48;25.90;;;6.25;;
2177;SDS011;1095;50.992;6.798;2023-12-20T05:54:16;23.70;;;6.55;;
2177;SDS011;1095;50.992;6.798;2023-12-20T05:56:43;18.20;;;6.20;;
2177;SDS011;1095;50.992;6.798;2023-12-20T05:59:10;24.67;;;9.27;;
2177;SDS011;1095;50.992;6.798;2023-12-20T06:01:36;27.08;;;8.80;;
2177;SDS011;1095;50.992;6.798;2023-12-20T06:04:04;18.58;;;6.15;;
2177;SDS011;1095;50.992;6.798;2023-12-20T06:06:34;22.25;;;6.53;;
2177;SDS011;1095;50.992;6.798;2023-12-20T06:09:00;27.02;;;7.45;;
2177;SDS011;1095;50.992;6.798;2023-12-20T06:11:28;23.00;;;7.13;;
2177;SDS011;1095;50.992;6.798;2023-12-20T06:13:54;17.88;;;6.65;;
2177;SDS011;1095;50.992;6.798;2023-12-20T06:16:21;21.83;;;6.85;;
2177;SDS011;1095;50.992;6.798;2023-12-20T06:18:47;23.30;;;6.45;;
2177;SDS011;1095;50.992;6.798;2023-12-20T06:21:18;32.08;;;9.02;;
2177;SDS011;1095;50.992;6.798;2023-12-20T06:23:45;27.02;;;7.95;;
2177;SDS011;1095;50.992;6.798;2023-12-20T06:26:11;30.70;;;6.57;;
2177;SDS011;1095;50.992;6.798;2023-12-20T06:28:38;24.60;;;6.07;;
2177;SDS011;1095;50.992;6.798;2023-12-20T06:31:05;23.13;;;6.22;;
2177;SDS011;1095;50.992;6.798;2023-12-20T06:33:31;21.25;;;7.28;;
2177;SDS011;1095;50.992;6.798;2023-12-20T06:35:58;21.13;;;6.35;;
2177;SDS011;1095;50.992;6.798;2023-12-20T06:38:26;25.38;;;6.85;;
2177;SDS011;1095;50.992;6.798;2023-12-20T06:40:53;17.75;;;5.53;;
2177;SDS011;1095;50.992;6.798;2023-12-20T06:43:22;20.40;;;6.50;;
2177;SDS011;1095;50.992;6.798;2023-12-20T06:45:49;24.55;;;5.80;;
2177;SDS011;1095;50.992;6.798;2023-12-20T06:48:16;18.02;;;5.53;;
2177;SDS011;1095;50.992;6.798;2023-12-20T06:50:42;18.73;;;5.63;;
2177;SDS011;1095;50.992;6.798;2023-12-20T06:53:09;16.92;;;5.88;;
2177;SDS011;1095;50.992;6.798;2023-12-20T06:55:37;24.85;;;5.90;;
2177;SDS011;1095;50.992;6.798;2023-12-20T06:58:04;13.32;;;5.70;;
2177;SDS011;1095;50.992;6.798;2023-12-20T07:00:31;20.13;;;6.25;;
2177;SDS011;1095;50.992;6.798;2023-12-20T07:02:59;19.98;;;6.10;;
2177;SDS011;1095;50.992;6.798;2023-12-20T07:05:25;18.67;;;5.65;;
2177;SDS011;1095;50.992;6.798;2023-12-20T07:07:52;21.50;;;6.65;;
2177;SDS011;1095;50.992;6.798;2023-12-20T07:10:19;23.60;;;5.97;;
2177;SDS011;1095;50.992;6.798;2023-12-20T07:12:47;16.83;;;5.95;;
2177;SDS011;1095;50.992;6.798;2023-12-20T07:15:14;20.45;;;6.13;;
2177;SDS011;1095;50.992;6.798;2023-12-20T07:17:41;24.63;;;6.40;;
2177;SDS011;1095;50.992;6.798;2023-12-20T07:20:09;17.90;;;6.57;;
2177;SDS011;1095;50.992;6.798;2023-12-20T07:22:36;20.40;;;6.88;;
2177;SDS011;1095;50.992;6.798;2023-12-20T07:25:03;21.88;;;6.85;;
2177;SDS011;1095;50.992;6.798;2023-12-20T07:27:30;20.27;;;7.07;;
2177;SDS011;1095;50.992;6.798;2023-12-20T07:29:58;21.48;;;6.35;;
2177;SDS011;1095;50.992;6.798;2023-12-20T07:32:25;24.20;;;7.07;;
2177;SDS011;1095;50.992;6.798;2023-12-20T07:34:52;30.08;;;7.70;;
2177;SDS011;1095;50.992;6.798;2023-12-20T07:37:18;24.95;;;7.38;;
2177;SDS011;1095;50.992;6.798;2023-12-20T07:39:46;25.90;;;9.23;;
2177;SDS011;1095;50.992;6.798;2023-12-20T07:42:12;20.45;;;7.03;;
2177;SDS011;1095;50.992;6.798;2023-12-20T07:44:39;27.58;;;7.07;;
2177;SDS011;1095;50.992;6.798;2023-12-20T07:47:07;22.27;;;7.22;;
2177;SDS011;1095;50.992;6.798;2023-12-20T07:49:34;17.75;;;7.32;;
2177;SDS011;1095;50.992;6.798;2023-12-20T07:52:01;18.58;;;8.70;;
2177;SDS011;1095;50.992;6.798;2023-12-20T07:54:27;20.15;;;7.22;;
2177;SDS011;1095;50.992;6.798;2023-12-20T07:56:57;22.52;;;6.63;;
2177;SDS011;1095;50.992;6.798;2023-12-20T07:59:23;22.75;;;7.43;;
2177;SDS011;1095;50.992;6.798;2023-12-20T08:01:50;20.13;;;7.60;;
2177;SDS011;1095;50.992;6.798;2023-12-20T08:04:18;16.45;;;6.68;;
2177;SDS011;1095;50.992;6.798;2023-12-20T08:06:44;21.83;;;7.57;;
2177;SDS011;1095;50.992;6.798;2023-12-20T08:09:11;20.33;;;7.60;;
2177;SDS011;1095;50.992;6.798;2023-12-20T08:11:37;25.88;;;7.20;;
2177;SDS011;1095;50.992;6.798;2023-12-20T08:14:04;20.95;;;7.85;;
2177;SDS011;1095;50.992;6.798;2023-12-20T08:16:31;21.05;;;7.45;;
2177;SDS011;1095;50.992;6.798;2023-12-20T08:18:57;21.88;;;7.63;;
2177;SDS011;1095;50.992;6.798;2023-12-20T08:21:25;21.30;;;7.55;;
2177;SDS011;1095;50.992;6.798;2023-12-20T08:23:52;20.63;;;7.07;;
2177;SDS011;1095;50.992;6.798;2023-12-20T08:26:19;22.48;;;7.45;;
2177;SDS011;1095;50.992;6.798;2023-12-20T08:28:47;30.30;;;7.82;;
2177;SDS011;1095;50.992;6.798;2023-12-20T08:31:14;19.25;;;6.70;;
2177;SDS011;1095;50.992;6.798;2023-12-20T08:33:43;19.77;;;7.63;;
2177;SDS011;1095;50.992;6.798;2023-12-20T08:36:09;18.20;;;7.28;;
2177;SDS011;1095;50.992;6.798;2023-12-20T08:38:38;22.60;;;6.57;;
2177;SDS011;1095;50.992;6.798;2023-12-20T08:41:04;25.70;;;7.03;;
2177;SDS011;1095;50.992;6.798;2023-12-20T08:43:31;18.58;;;6.07;;
2177;SDS011;1095;50.992;6.798;2023-12-20T08:45:58;21.55;;;6.30;;
2177;SDS011;1095;50.992;6.798;2023-12-20T08:48:24;22.08;;;6.18;;
2177;SDS011;1095;50.992;6.798;2023-12-20T08:50:51;16.63;;;6.00;;
2177;SDS011;1095;50.992;6.798;2023-12-20T08:53:18;21.38;;;6.70;;
2177;SDS011;1095;50.992;6.798;2023-12-20T08:55:46;19.95;;;5.80;;
2177;SDS011;1095;50.992;6.798;2023-12-20T08:58:13;15.93;;;6.70;;
2177;SDS011;1095;50.992;6.798;2023-12-20T09:00:39;22.98;;;6.15;;
2177;SDS011;1095;50.992;6.798;2023-12-20T09:03:06;16.33;;;5.68;;
2177;SDS011;1095;50.992;6.798;2023-12-20T09:05:33;19.40;;;6.53;;
2177;SDS011;1095;50.992;6.798;2023-12-20T09:08:00;20.45;;;6.40;;
2177;SDS011;1095;50.992;6.798;2023-12-20T09:10:26;18.20;;;6.05;;
2177;SDS011;1095;50.992;6.798;2023-12-20T09:12:54;15.77;;;6.18;;
2177;SDS011;1095;50.992;6.798;2023-12-20T09:15:23;21.27;;;6.25;;
2177;SDS011;1095;50.992;6.798;2023-12-20T09:17:50;24.23;;;7.18;;
2177;SDS011;1095;50.992;6.798;2023-12-20T09:20:17;23.15;;;6.57;;
2177;SDS011;1095;50.992;6.798;2023-12-20T09:22:43;19.38;;;6.28;;
2177;SDS011;1095;50.992;6.798;2023-12-20T09:25:10;19.27;;;5.90;;
2177;SDS011;1095;50.992;6.798;2023-12-20T09:27:37;24.27;;;6.10;;
2177;SDS011;1095;50.992;6.798;2023-12-20T09:30:06;25.50;;;6.68;;
2177;SDS011;1095;50.992;6.798;2023-12-20T09:32:33;23.98;;;6.20;;
2177;SDS011;1095;50.992;6.798;2023-12-20T09:35:00;12.77;;;5.53;;
2177;SDS011;1095;50.992;6.798;2023-12-20T09:37:26;20.25;;;6.03;;
2177;SDS011;1095;50.992;6.798;2023-12-20T09:39:54;16.08;;;5.63;;
2177;SDS011;1095;50.992;6.798;2023-12-20T09:42:21;19.35;;;5.70;;
2177;SDS011;1095;50.992;6.798;2023-12-20T09:44:55;24.38;;;6.72;;
2177;SDS011;1095;50.992;6.798;2023-12-20T09:47:29;18.10;;;5.50;;
2177;SDS011;1095;50.992;6.798;2023-12-20T09:49:56;14.18;;;5.78;;
2177;SDS011;1095;50.992;6.798;2023-12-20T09:52:23;17.20;;;5.18;;
2177;SDS011;1095;50.992;6.798;2023-12-20T09:54:50;20.38;;;5.45;;
2177;SDS011;1095;50.992;6.798;2023-12-20T09:57:20;14.55;;;5.18;;
2177;SDS011;1095;50.992;6.798;2023-12-20T09:59:46;16.50;;;5.00;;
2177;SDS011;1095;50.992;6.798;2023-12-20T10:02:13;17.13;;;5.63;;
2177;SDS011;1095;50.992;6.798;2023-12-20T10:04:44;18.77;;;5.60;;
2177;SDS011;1095;50.992;6.798;2023-12-20T10:07:13;19.73;;;4.95;;
2177;SDS011;1095;50.992;6.798;2023-12-20T10:09:40;17.20;;;5.35;;
2177;SDS011;1095;50.992;6.798;2023-12-20T10:12:08;19.30;;;4.97;;
2177;SDS011;1095;50.992;6.798;2023-12-20T10:14:34;16.27;;;4.78;;
2177;SDS011;1095;50.992;6.798;2023-12-20T10:17:02;18.02;;;5.38;;
2177;SDS011;1095;50.992;6.798;2023-12-20T10:19:29;16.80;;;5.43;;
2177;SDS011;1095;50.992;6.798;2023-12-20T10:21:57;13.02;;;5.43;;
2177;SDS011;1095;50.992;6.798;2023-12-20T10:24:23;14.80;;;5.53;;
2177;SDS011;1095;50.992;6.798;2023-12-20T10:26:57;16.98;;;6.18;;
2177;SDS011;1095;50.992;6.798;2023-12-20T10:29:31;17.17;;;5.63;;
2177;SDS011;1095;50.992;6.798;2023-12-20T10:31:58;17.88;;;6.78;;
2177;SDS011;1095;50.992;6.798;2023-12-20T10:34:25;13.43;;;5.50;;
2177;SDS011;1095;50.992;6.798;2023-12-20T10:36:51;16.23;;;6.38;;
2177;SDS011;1095;50.992;6.798;2023-12-20T10:39:19;23.42;;;6.20;;
2177;SDS011;1095;50.992;6.798;2023-12-20T10:41:47;11.60;;;5.28;;
2177;SDS011;1095;50.992;6.798;2023-12-20T10:44:14;15.75;;;5.85;;
2177;SDS011;1095;50.992;6.798;2023-12-20T10:46:41;20.83;;;5.90;;
2177;SDS011;1095;50.992;6.798;2023-12-20T10:49:14;17.00;;;5.78;;
2177;SDS011;1095;50.992;6.798;2023-12-20T10:51:44;17.77;;;6.10;;
2177;SDS011;1095;50.992;6.798;2023-12-20T10:54:13;19.35;;;6.10;;
2177;SDS011;1095;50.992;6.798;2023-12-20T10:56:41;18.33;;;5.75;;
2177;SDS011;1095;50.992;6.798;2023-12-20T10:59:08;14.20;;;5.13;;
2177;SDS011;1095;50.992;6.798;2023-12-20T11:01:37;20.25;;;5.88;;
2177;SDS011;1095;50.992;6.798;2023-12-20T11:04:08;15.35;;;5.93;;
2177;SDS011;1095;50.992;6.798;2023-12-20T11:06:40;18.52;;;6.63;;
2177;SDS011;1095;50.992;6.798;2023-12-20T11:09:14;15.82;;;5.85;;
2177;SDS011;1095;50.992;6.798;2023-12-20T11:14:38;18.25;;;5.95;;
2177;SDS011;1095;50.992;6.798;2023-12-20T11:17:09;19.67;;;6.20;;
2177;SDS011;1095;50.992;6.798;2023-12-20T11:19:43;12.98;;;5.53;;
2177;SDS011;1095;50.992;6.798;2023-12-20T11:22:31;11.15;;;4.60;;
2177;SDS011;1095;50.992;6.798;2023-12-20T11:24:59;17.55;;;5.60;;
2177;SDS011;1095;50.992;6.798;2023-12-20T11:27:31;18.23;;;6.13;;
2177;SDS011;1095;50.992;6.798;2023-12-20T11:29:58;18.17;;;5.90;;
2177;SDS011;1095;50.992;6.798;2023-12-20T11:32:28;20.40;;;5.18;;
2177;SDS011;1095;50.992;6.798;2023-12-20T11:34:55;16.02;;;5.05;;
2177;SDS011;1095;50.992;6.798;2023-12-20T11:37:28;17.00;;;5.63;;
2177;SDS011;1095;50.992;6.798;2023-12-20T11:39:56;20.75;;;5.75;;
2177;SDS011;1095;50.992;6.798;2023-12-20T11:42:26;12.70;;;4.53;;
2177;SDS011;1095;50.992;6.798;2023-12-20T11:44:55;13.80;;;5.70;;
2177;SDS011;1095;50.992;6.798;2023-12-20T11:47:22;15.02;;;4.90;;
2177;SDS011;1095;50.992;6.798;2023-12-20T11:49:49;19.30;;;5.45;;
2177;SDS011;1095;50.992;6.798;2023-12-20T11:52:16;14.93;;;5.20;;
2177;SDS011;1095;50.992;6.798;2023-12-20T11:54:43;11.90;;;5.47;;
2177;SDS011;1095;50.992;6.798;2023-12-20T11:57:10;14.68;;;4.93;;
2177;SDS011;1095;50.992;6.798;2023-12-20T11:59:36;22.77;;;5.90;;
2177;SDS011;1095;50.992;6.798;2023-12-20T12:02:04;14.00;;;5.15;;
2177;SDS011;1095;50.992;6.798;2023-12-20T12:04:32;14.68;;;5.50;;
2177;SDS011;1095;50.992;6.798;2023-12-20T12:06:58;13.35;;;5.68;;
2177;SDS011;1095;50.992;6.798;2023-12-20T12:09:25;22.58;;;7.60;;
2177;SDS011;1095;50.992;6.798;2023-12-20T12:11:51;18.90;;;5.68;;
2177;SDS011;1095;50.992;6.798;2023-12-20T12:14:18;15.48;;;6.10;;
2177;SDS011;1095;50.992;6.798;2023-12-20T12:16:45;19.60;;;6.57;;
2177;SDS011;1095;50.992;6.798;2023-12-20T12:19:21;13.27;;;6.18;;
2177;SDS011;1095;50.992;6.798;2023-12-20T12:21:48;19.15;;;6.75;;
2177;SDS011;1095;50.992;6.798;2023-12-20T12:24:15;15.65;;;5.90;;
2177;SDS011;1095;50.992;6.798;2023-12-20T12:26:41;14.82;;;6.47;;
2177;SDS011;1095;50.992;6.798;2023-12-20T12:29:08;20.35;;;6.55;;
2177;SDS011;1095;50.992;6.798;2023-12-20T12:31:35;16.70;;;6.82;;
2177;SDS011;1095;50.992;6.798;2023-12-20T12:34:02;23.13;;;6.82;;
2177;SDS011;1095;50.992;6.798;2023-12-20T12:36:30;19.23;;;6.53;;
2177;SDS011;1095;50.992;6.798;2023-12-20T12:38:57;21.08;;;6.53;;
2177;SDS011;1095;50.992;6.798;2023-12-20T12:41:24;13.45;;;6.15;;
2177;SDS011;1095;50.992;6.798;2023-12-20T12:43:50;15.63;;;6.40;;
2177;SDS011;1095;50.992;6.798;2023-12-20T12:46:17;16.60;;;6.70;;
2177;SDS011;1095;50.992;6.798;2023-12-20T12:48:44;15.43;;;6.55;;
2177;SDS011;1095;50.992;6.798;2023-12-20T12:51:11;24.00;;;6.90;;
2177;SDS011;1095;50.992;6.798;2023-12-20T12:53:40;19.10;;;6.57;;
2177;SDS011;1095;50.992;6.798;2023-12-20T12:56:07;23.08;;;6.97;;
2177;SDS011;1095;50.992;6.798;2023-12-20T12:58:34;17.98;;;6.57;;
2177;SDS011;1095;50.992;6.798;2023-12-20T13:01:00;13.02;;;6.13;;
2177;SDS011;1095;50.992;6.798;2023-12-20T13:03:28;25.13;;;7.45;;
2177;SDS011;1095;50.992;6.798;2023-12-20T13:05:55;22.13;;;7.15;;
2177;SDS011;1095;50.992;6.798;2023-12-20T13:08:22;18.73;;;7.43;;
2177;SDS011;1095;50.992;6.798;2023-12-20T13:10:50;26.27;;;7.32;;
2177;SDS011;1095;50.992;6.798;2023-12-20T13:13:17;15.00;;;6.43;;
2177;SDS011;1095;50.992;6.798;2023-12-20T13:15:43;17.85;;;6.88;;
2177;SDS011;1095;50.992;6.798;2023-12-20T13:18:15;20.57;;;6.73;;
2177;SDS011;1095;50.992;6.798;2023-12-20T13:20:42;15.93;;;6.60;;
2177;SDS011;1095;50.992;6.798;2023-12-20T13:23:09;17.90;;;6.90;;
2177;SDS011;1095;50.992;6.798;2023-12-20T13:25:35;12.70;;;6.05;;
2177;SDS011;1095;50.992;6.798;2023-12-20T13:28:04;16.02;;;6.80;;
2177;SDS011;1095;50.992;6.798;2023-12-20T13:30:31;17.40;;;7.38;;
2177;SDS011;1095;50.992;6.798;2023-12-20T13:32:57;18.92;;;6.95;;
2177;SDS011;1095;50.992;6.798;2023-12-20T13:35:24;16.65;;;6.57;;
2177;SDS011;1095;50.992;6.798;2023-12-20T13:37:51;13.98;;;6.90;;
2177;SDS011;1095;50.992;6.798;2023-12-20T13:40:18;15.32;;;6.28;;
2177;SDS011;1095;50.992;6.798;2023-12-20T13:42:45;15.95;;;6.40;;
2177;SDS011;1095;50.992;6.798;2023-12-20T13:45:13;11.45;;;6.18;;
2177;SDS011;1095;50.992;6.798;2023-12-20T13:47:39;17.45;;;6.38;;
2177;SDS011;1095;50.992;6.798;2023-12-20T13:50:06;17.33;;;6.20;;
2177;SDS011;1095;50.992;6.798;2023-12-20T13:52:33;16.25;;;6.05;;
2177;SDS011;1095;50.992;6.798;2023-12-20T13:55:06;14.85;;;6.35;;
2177;SDS011;1095;50.992;6.798;2023-12-20T13:57:33;14.73;;;6.50;;
2177;SDS011;1095;50.992;6.798;2023-12-20T14:00:02;15.85;;;6.15;;
2177;SDS011;1095;50.992;6.798;2023-12-20T14:02:31;14.70;;;6.47;;
2177;SDS011;1095;50.992;6.798;2023-12-20T14:04:57;17.17;;;7.70;;
2177;SDS011;1095;50.992;6.798;2023-12-20T14:07:24;16.60;;;6.75;;
2177;SDS011;1095;50.992;6.798;2023-12-20T14:09:51;22.27;;;6.85;;
2177;SDS011;1095;50.992;6.798;2023-12-20T14:12:17;16.95;;;6.68;;
2177;SDS011;1095;50.992;6.798;2023-12-20T14:14:45;15.20;;;6.30;;
2177;SDS011;1095;50.992;6.798;2023-12-20T14:17:11;16.67;;;6.78;;
2177;SDS011;1095;50.992;6.798;2023-12-20T14:19:39;19.38;;;6.25;;
2177;SDS011;1095;50.992;6.798;2023-12-20T14:22:06;22.38;;;7.03;;
2177;SDS011;1095;50.992;6.798;2023-12-20T14:24:33;14.30;;;5.85;;
2177;SDS011;1095;50.992;6.798;2023-12-20T14:27:01;14.90;;;6.40;;
2177;SDS011;1095;50.992;6.798;2023-12-20T14:29:27;17.38;;;7.43;;
2177;SDS011;1095;50.992;6.798;2023-12-20T14:31:54;19.70;;;6.97;;
2177;SDS011;1095;50.992;6.798;2023-12-20T14:34:20;16.02;;;6.07;;
2177;SDS011;1095;50.992;6.798;2023-12-20T14:36:50;12.63;;;6.50;;
2177;SDS011;1095;50.992;6.798;2023-12-20T14:39:17;15.77;;;5.93;;
2177;SDS011;1095;50.992;6.798;2023-12-20T14:41:44;15.15;;;5.60;;
2177;SDS011;1095;50.992;6.798;2023-12-20T14:44:10;14.57;;;5.80;;
2177;SDS011;1095;50.992;6.798;2023-12-20T14:46:37;12.82;;;6.07;;
2177;SDS011;1095;50.992;6.798;2023-12-20T14:49:04;13.68;;;5.80;;
2177;SDS011;1095;50.992;6.798;2023-12-20T14:51:31;12.60;;;5.07;;
2177;SDS011;1095;50.992;6.798;2023-12-20T14:53:59;19.10;;;5.85;;
2177;SDS011;1095;50.992;6.798;2023-12-20T14:56:26;14.07;;;5.60;;
2177;SDS011;1095;50.992;6.798;2023-12-20T14:58:53;18.73;;;5.70;;
2177;SDS011;1095;50.992;6.798;2023-12-20T15:01:19;18.15;;;5.80;;
2177;SDS011;1095;50.992;6.798;2023-12-20T15:03:46;19.35;;;6.40;;
2177;SDS011;1095;50.992;6.798;2023-12-20T15:06:13;16.08;;;5.75;;
2177;SDS011;1095;50.992;6.798;2023-12-20T15:08:40;10.82;;;5.47;;
2177;SDS011;1095;50.992;6.798;2023-12-20T15:11:08;15.73;;;5.35;;
2177;SDS011;1095;50.992;6.798;2023-12-20T15:13:34;17.60;;;6.43;;
2177;SDS011;1095;50.992;6.798;2023-12-20T15:16:01;13.80;;;5.32;;
2177;SDS011;1095;50.992;6.798;2023-12-20T15:18:28;20.35;;;6.65;;
2177;SDS011;1095;50.992;6.798;2023-12-20T15:20:55;16.00;;;5.88;;
2177;SDS011;1095;50.992;6.798;2023-12-20T15:23:22;23.23;;;7.07;;
2177;SDS011;1095;50.992;6.798;2023-12-20T15:25:51;19.95;;;6.95;;
2177;SDS011;1095;50.992;6.798;2023-12-20T15:28:19;16.77;;;6.72;;
2177;SDS011;1095;50.992;6.798;2023-12-20T15:30:45;14.10;;;6.18;;
2177;SDS011;1095;50.992;6.798;2023-12-20T15:33:12;14.13;;;6.95;;
2177;SDS011;1095;50.992;6.798;2023-12-20T15:35:39;24.95;;;9.00;;
2177;SDS011;1095;50.992;6.798;2023-12-20T15:38:05;16.83;;;6.05;;
2177;SDS011;1095;50.992;6.798;2023-12-20T15:40:32;19.52;;;6.85;;
2177;SDS011;1095;50.992;6.798;2023-12-20T15:42:58;14.93;;;6.40;;
2177;SDS011;1095;50.992;6.798;2023-12-20T15:45:27;15.00;;;6.70;;
2177;SDS011;1095;50.992;6.798;2023-12-20T15:47:53;15.18;;;5.78;;
2177;SDS011;1095;50.992;6.798;2023-12-20T15:50:20;17.00;;;6.60;;
2177;SDS011;1095;50.992;6.798;2023-12-20T15:52:46;18.75;;;7.25;;
2177;SDS011;1095;50.992;6.798;2023-12-20T15:55:13;12.40;;;6.40;;
2177;SDS011;1095;50.992;6.798;2023-12-20T15:57:40;17.80;;;7.00;;
2177;SDS011;1095;50.992;6.798;2023-12-20T16:00:07;23.23;;;7.55;;
2177;SDS011;1095;50.992;6.798;2023-12-20T16:02:35;18.92;;;6.97;;
2177;SDS011;1095;50.992;6.798;2023-12-20T16:05:02;13.77;;;7.03;;
2177;SDS011;1095;50.992;6.798;2023-12-20T16:07:29;17.42;;;7.68;;